Time;durP1;ratioP1;P1;durP2;ratioP2;P2;SDS_P1;SDS_P2;PMS_P1;PMS_P2;Temp;Humidity;BMP_temperature;BMP_pressure;BME280_temperature;BME280_humidity;BME280_pressure;Samples;Min_cycle;Max_cycle;Signal;HPM_P1;HPM_P2
2021/11/24 00:01:13;;;;;;;;;34.25;31.50;;;;;7.72;65.07;102493.22;5048434;28;45252;-80
2021/11/24 00:03:39;;;;;;;;;27.00;27.00;;;;;7.69;64.76;102481.84;5059001;28;45463;-80
2021/11/24 00:06:04;;;;;;;;;33.50;29.50;;;;;7.68;65.05;102475.72;5046140;28;45362;-80
2021/11/24 00:08:29;;;;;;;;;32.50;26.75;;;;;7.69;64.71;102471.38;5057067;28;45444;-80
2021/11/24 00:10:55;;;;;;;;;31.75;29.00;;;;;7.67;65.27;102471.38;5059308;28;45278;-80
2021/11/24 00:13:20;;;;;;;;;32.25;28.00;;;;;7.67;64.54;102470.50;5059142;28;45592;-80
2021/11/24 00:15:46;;;;;;;;;31.50;27.75;;;;;7.65;64.86;102466.09;5059137;28;45472;-80
2021/11/24 00:18:11;;;;;;;;;32.25;27.00;;;;;7.68;64.25;102461.78;5050755;28;45243;-80
2021/11/24 00:20:37;;;;;;;;;29.25;27.00;;;;;7.63;64.59;102456.53;5059495;28;45775;-80
2021/11/24 00:23:02;;;;;;;;;36.75;31.25;;;;;7.61;64.76;102468.69;5058909;28;45565;-81
2021/11/24 00:25:28;;;;;;;;;38.25;32.00;;;;;7.58;64.54;102466.94;5059333;28;46519;-81
2021/11/24 00:27:53;;;;;;;;;38.75;33.25;;;;;7.59;64.28;102465.19;5041879;28;45347;-81
2021/11/24 00:30:20;;;;;;;;;34.25;31.50;;;;;7.54;64.10;102467.78;5041820;28;45646;-81
2021/11/24 00:32:45;;;;;;;;;36.75;31.25;;;;;7.54;64.20;102465.16;5058586;28;45220;-81
2021/11/24 00:35:11;;;;;;;;;39.75;34.00;;;;;7.47;64.80;102450.28;5058707;28;45421;-81
2021/11/24 00:37:36;;;;;;;;;36.75;31.75;;;;;7.43;64.74;102454.63;5054645;28;45474;-81
2021/11/24 00:40:04;;;;;;;;;32.50;29.50;;;;;7.48;64.75;102470.38;5053244;28;45575;-81
2021/11/24 00:42:30;;;;;;;;;40.75;33.00;;;;;7.44;65.00;102456.38;5047435;28;45568;-81
2021/11/24 00:44:55;;;;;;;;;35.50;29.00;;;;;7.43;65.04;102455.47;5062278;28;46655;-82
2021/11/24 00:47:21;;;;;;;;;44.25;36.00;;;;;7.43;65.37;102463.34;5059082;28;45294;-81
2021/11/24 00:49:46;;;;;;;;;46.25;36.50;;;;;7.43;64.78;102465.94;5060277;28;45890;-81
2021/11/24 00:52:12;;;;;;;;;42.25;34.75;;;;;7.41;65.10;102467.69;5062080;28;45238;-81
2021/11/24 00:54:37;;;;;;;;;48.50;37.50;;;;;7.42;64.91;102452.88;5048720;28;45438;-81
2021/11/24 00:57:03;;;;;;;;;55.25;45.00;;;;;7.40;65.32;102452.88;5072671;28;45425;-81
2021/11/24 00:59:29;;;;;;;;;54.25;43.50;;;;;7.36;65.34;102437.97;5060448;28;45242;-83
2021/11/24 01:01:54;;;;;;;;;54.25;41.75;;;;;7.35;64.56;102449.31;5060678;28;46187;-82
2021/11/24 01:04:20;;;;;;;;;50.50;39.00;;;;;7.32;64.52;102444.94;5056111;28;46801;-82
2021/11/24 01:06:45;;;;;;;;;43.75;35.50;;;;;7.31;64.96;102445.78;5051670;28;45331;-85
2021/11/24 01:09:11;;;;;;;;;37.75;33.25;;;;;7.31;65.21;102442.28;5060476;28;45453;-85
2021/11/24 01:11:38;;;;;;;;;38.75;33.25;;;;;7.26;64.77;102442.25;5060697;28;45499;-82
2021/11/24 01:14:04;;;;;;;;;44.25;34.00;;;;;7.23;65.32;102429.19;5053495;28;45397;-83
2021/11/24 01:16:29;;;;;;;;;36.75;34.00;;;;;7.23;65.30;102428.28;5050741;28;45935;-83
2021/11/24 01:18:55;;;;;;;;;35.75;30.25;;;;;7.21;65.13;102428.25;5061831;28;45280;-83
2021/11/24 01:21:20;;;;;;;;;34.75;29.75;;;;;7.20;65.48;102432.66;5077195;28;47299;-83
2021/11/24 01:23:46;;;;;;;;;33.00;30.75;;;;;7.19;65.30;102428.25;5057362;28;45359;-83
2021/11/24 01:26:12;;;;;;;;;37.75;33.25;;;;;7.20;65.22;102423.91;5061781;28;45276;-83
2021/11/24 01:28:38;;;;;;;;;35.25;33.00;;;;;7.20;65.33;102421.31;5061665;28;45331;-83
2021/11/24 01:31:03;;;;;;;;;37.00;35.25;;;;;7.16;65.26;102419.53;5075013;28;45764;-83
2021/11/24 01:33:29;;;;;;;;;36.75;33.50;;;;;7.17;65.38;102422.16;5057435;28;45278;-83
2021/11/24 01:35:54;;;;;;;;;44.50;35.50;;;;;7.14;65.13;102421.22;5052724;28;45488;-83
2021/11/24 01:38:20;;;;;;;;;32.50;28.25;;;;;7.12;64.98;102408.16;5059177;28;45244;-83
2021/11/24 01:40:45;;;;;;;;;44.75;35.75;;;;;7.11;65.29;102416.88;5055744;28;45529;-82
2021/11/24 01:43:10;;;;;;;;;36.00;27.25;;;;;7.07;64.94;102399.38;5065655;28;48231;-84
2021/11/24 01:45:37;;;;;;;;;32.00;27.00;;;;;7.08;64.73;102409.00;5061230;28;45298;-85
2021/11/24 01:48:03;;;;;;;;;38.25;32.50;;;;;7.05;65.15;102407.22;5051958;28;45272;-85
2021/11/24 01:50:28;;;;;;;;;34.25;27.75;;;;;7.05;65.08;102411.56;5060203;28;45404;-85
2021/11/24 01:52:54;;;;;;;;;32.25;29.75;;;;;7.04;65.47;102407.19;5059073;28;46332;-85
2021/11/24 01:55:20;;;;;;;;;34.25;29.75;;;;;7.03;65.61;102408.06;5056145;28;45322;-82
2021/11/24 01:57:49;;;;;;;;;35.25;28.00;;;;;7.00;65.88;102403.69;5061458;28;45353;-82
2021/11/24 02:00:25;;;;;;;;;31.25;26.50;;;;;7.01;65.72;102404.59;5060656;28;45340;-81
2021/11/24 02:02:51;;;;;;;;;35.00;32.00;;;;;7.00;65.60;102388.00;5059318;28;45554;-82
2021/11/24 02:05:17;;;;;;;;;32.00;28.75;;;;;6.98;66.23;102389.75;5056037;28;45819;-82
2021/11/24 02:07:42;;;;;;;;;34.50;30.25;;;;;6.98;66.32;102395.84;5057486;28;45326;-82
2021/11/24 02:10:08;;;;;;;;;32.50;27.75;;;;;6.96;66.75;102401.94;5058215;28;46257;-82
2021/11/24 02:12:34;;;;;;;;;42.75;35.00;;;;;6.96;67.87;102391.47;5048223;28;45420;-84
2021/11/24 02:14:59;;;;;;;;;38.00;31.75;;;;;6.94;67.11;102388.81;5055966;28;45345;-87
2021/11/24 02:17:25;;;;;;;;;37.75;33.00;;;;;6.97;66.65;102385.34;5076254;28;45379;-87
2021/11/24 02:19:50;;;;;;;;;35.50;30.50;;;;;6.97;67.06;102388.84;5060755;28;45689;-83
2021/11/24 02:22:16;;;;;;;;;39.50;34.50;;;;;7.00;66.27;102388.00;5045757;28;47234;-82
2021/11/24 02:24:41;;;;;;;;;38.50;34.00;;;;;7.02;66.23;102385.41;5058745;28;45354;-82
2021/11/24 02:27:10;;;;;;;;;30.50;26.00;;;;;7.03;66.76;102374.97;5052770;28;45231;-82
2021/11/24 02:29:36;;;;;;;;;33.00;29.00;;;;;7.04;66.63;102375.81;5054668;28;45396;-82
2021/11/24 02:32:03;;;;;;;;;26.00;24.00;;;;;7.01;66.82;102371.47;5045502;28;45390;-82
2021/11/24 02:34:29;;;;;;;;;38.75;30.75;;;;;7.00;66.17;102369.72;5049931;28;45524;-82
2021/11/24 02:36:56;;;;;;;;;36.25;29.00;;;;;7.01;66.71;102370.59;5055614;28;45576;-82
2021/11/24 02:39:22;;;;;;;;;24.00;23.00;;;;;7.01;66.52;102363.63;5060614;28;45506;-82
2021/11/24 02:41:48;;;;;;;;;24.75;23.50;;;;;7.02;67.18;102365.38;5059214;28;45345;-82
2021/11/24 02:44:29;;;;;;;;;27.25;24.00;;;;;7.01;66.49;102358.41;5048184;28;45173;-82
2021/11/24 02:47:05;;;;;;;;;30.75;23.25;;;;;7.03;66.16;102363.63;5047946;28;45473;-83
2021/11/24 02:49:33;;;;;;;;;26.75;24.50;;;;;7.02;66.74;102354.03;5060244;28;45299;-82
2021/11/24 02:51:59;;;;;;;;;27.50;23.50;;;;;7.01;66.83;102353.16;5046602;28;45407;-82
2021/11/24 02:54:24;;;;;;;;;31.50;25.00;;;;;7.02;66.90;102349.69;5060433;28;45158;-82
2021/11/24 02:56:49;;;;;;;;;26.25;25.00;;;;;7.01;66.52;102342.72;5059161;28;45211;-82
2021/11/24 02:59:15;;;;;;;;;36.25;27.25;;;;;7.01;66.38;102340.09;5060358;28;45213;-84
2021/11/24 03:01:40;;;;;;;;;23.00;19.50;;;;;7.01;66.51;102341.84;5047181;28;46512;-84
2021/11/24 03:04:08;;;;;;;;;33.25;23.50;;;;;7.05;66.26;102349.72;5051900;28;45294;-84
2021/11/24 03:06:33;;;;;;;;;31.25;26.00;;;;;7.02;66.35;102330.50;5058917;28;45468;-84
2021/11/24 03:08:59;;;;;;;;;28.00;23.50;;;;;7.02;67.00;102325.25;5059674;28;45442;-83
2021/11/24 03:11:24;;;;;;;;;33.50;28.50;;;;;6.98;66.91;102324.38;5052524;28;46264;-83
2021/11/24 03:13:50;;;;;;;;;27.75;24.00;;;;;6.95;66.51;102321.72;5046031;28;45327;-82
2021/11/24 03:16:15;;;;;;;;;29.50;27.50;;;;;6.93;66.11;102313.00;5060091;28;45346;-83
2021/11/24 03:18:40;;;;;;;;;33.75;22.50;;;;;6.90;66.78;102313.84;5059700;28;45374;-83
2021/11/24 03:21:06;;;;;;;;;31.25;29.50;;;;;6.89;66.30;102306.00;5057089;28;47281;-83
2021/11/24 03:23:31;;;;;;;;;32.50;27.00;;;;;6.88;66.83;102310.34;5059792;28;45358;-83
2021/11/24 03:25:57;;;;;;;;;35.25;26.75;;;;;6.86;66.83;102306.88;5061533;28;45227;-84
2021/11/24 03:28:22;;;;;;;;;33.25;25.50;;;;;6.85;66.67;102303.38;5059862;28;45266;-82
2021/11/24 03:30:47;;;;;;;;;29.75;27.00;;;;;6.84;66.76;102305.97;5047692;28;46410;-81
2021/11/24 03:33:13;;;;;;;;;30.25;25.00;;;;;6.84;66.84;102308.59;5052931;28;45226;-81
2021/11/24 03:35:39;;;;;;;;;29.25;22.50;;;;;6.81;67.20;102304.22;5052550;28;45227;-81
2021/11/24 03:38:05;;;;;;;;;29.50;27.00;;;;;6.82;66.92;102305.94;5059474;28;45445;-81
2021/11/24 03:40:34;;;;;;;;;28.50;26.00;;;;;6.85;66.72;102299.88;5046673;28;45319;-81
2021/11/24 03:43:01;;;;;;;;;29.00;23.25;;;;;6.81;67.07;102290.25;5054988;28;45276;-80
2021/11/24 03:45:29;;;;;;;;;31.25;26.50;;;;;6.81;66.83;102293.75;5051204;28;45450;-80
2021/11/24 03:47:57;;;;;;;;;36.25;24.00;;;;;6.79;67.07;102287.63;5059230;28;45554;-81
2021/11/24 03:50:23;;;;;;;;;25.00;24.00;;;;;6.78;66.93;102291.13;5048337;28;45402;-80
2021/11/24 03:52:48;;;;;;;;;35.00;30.00;;;;;6.72;67.04;102280.59;5044216;28;45726;-80
2021/11/24 03:55:15;;;;;;;;;33.25;24.00;;;;;6.69;66.75;102276.22;5059741;28;45338;-81
2021/11/24 03:57:41;;;;;;;;;37.00;30.00;;;;;6.69;67.25;102276.22;5059341;28;45491;-81
2021/11/24 04:00:11;;;;;;;;;50.00;36.25;;;;;6.69;67.09;102273.59;5055485;28;45394;-82
2021/11/24 04:02:38;;;;;;;;;43.25;33.25;;;;;6.69;66.94;102273.59;5044975;28;45544;-82
2021/11/24 04:05:05;;;;;;;;;39.25;33.25;;;;;6.69;67.08;102268.38;5046963;28;45295;-82
2021/11/24 04:07:30;;;;;;;;;37.00;33.25;;;;;6.70;66.71;102269.25;5058861;28;45531;-81
2021/11/24 04:09:55;;;;;;;;;33.25;29.25;;;;;6.69;67.09;102275.38;5057467;28;46400;-80
2021/11/24 04:12:21;;;;;;;;;37.75;32.00;;;;;6.66;66.96;102268.38;5057800;28;45239;-81
2021/11/24 04:14:46;;;;;;;;;36.75;29.75;;;;;6.70;66.69;102264.91;5059259;28;45434;-81
2021/11/24 04:17:11;;;;;;;;;37.25;30.00;;;;;6.72;66.98;102268.41;5060407;28;45390;-82
2021/11/24 04:19:37;;;;;;;;;30.75;27.00;;;;;6.72;67.03;102271.03;5055545;28;45437;-82
2021/11/24 04:22:02;;;;;;;;;37.75;27.75;;;;;6.68;67.15;102265.75;5048935;28;45208;-80
2021/11/24 04:24:28;;;;;;;;;36.50;31.25;;;;;6.67;67.10;102258.81;5062796;28;45402;-82
2021/11/24 04:26:54;;;;;;;;;28.25;25.75;;;;;6.67;66.98;102266.66;5048446;28;45233;-82
2021/11/24 04:29:19;;;;;;;;;34.75;29.75;;;;;6.65;67.25;102261.38;5054351;28;46417;-81
2021/11/24 04:31:45;;;;;;;;;33.25;26.50;;;;;6.67;66.71;102264.88;5051224;28;45456;-82
2021/11/24 04:34:10;;;;;;;;;34.50;30.00;;;;;6.66;66.87;102252.69;5054951;28;45491;-84
2021/11/24 04:36:35;;;;;;;;;37.25;28.75;;;;;6.63;67.07;102247.44;5061254;28;45223;-84
2021/11/24 04:39:01;;;;;;;;;37.50;29.00;;;;;6.62;67.34;102243.06;5056654;28;45346;-83
2021/11/24 04:41:26;;;;;;;;;33.25;25.25;;;;;6.60;67.09;102242.19;5054508;28;45301;-83
2021/11/24 04:43:52;;;;;;;;;30.25;28.50;;;;;6.59;67.26;102243.06;5050317;28;45548;-82
2021/11/24 04:46:18;;;;;;;;;30.75;22.50;;;;;6.56;66.90;102237.78;5062234;28;45352;-82
2021/11/24 04:48:43;;;;;;;;;29.25;25.75;;;;;6.52;67.50;102243.00;5048350;28;46104;-83
2021/11/24 04:51:09;;;;;;;;;31.50;26.50;;;;;6.49;66.76;102237.75;5062345;28;45299;-83
2021/11/24 04:53:35;;;;;;;;;27.75;24.00;;;;;6.49;66.85;102242.09;5050597;28;45540;-83
2021/11/24 04:56:01;;;;;;;;;33.50;28.25;;;;;6.49;66.80;102245.59;5062207;28;45401;-83
2021/11/24 04:58:27;;;;;;;;;39.00;32.50;;;;;6.51;66.93;102243.88;5048405;28;45405;-84
2021/11/24 05:00:53;;;;;;;;;29.00;24.25;;;;;6.51;66.72;102243.88;5059938;28;45934;-84
2021/11/24 05:03:19;;;;;;;;;29.00;25.25;;;;;6.51;66.76;102236.03;5053866;28;45417;-84
2021/11/24 05:05:45;;;;;;;;;30.75;25.00;;;;;6.52;66.78;102236.88;5062129;28;45256;-84
2021/11/24 05:08:10;;;;;;;;;33.75;28.25;;;;;6.53;66.83;102243.88;5056334;28;45493;-84
2021/11/24 05:10:36;;;;;;;;;32.50;26.75;;;;;6.53;66.33;102246.47;5047977;28;45165;-82
2021/11/24 05:13:04;;;;;;;;;34.75;26.00;;;;;6.53;66.65;102239.53;5060142;28;45523;-83
2021/11/24 05:15:32;;;;;;;;;32.75;26.50;;;;;6.52;66.87;102240.38;5061868;28;45439;-85
2021/11/24 05:18:04;;;;;;;;;35.00;28.75;;;;;6.51;67.08;102243.00;5061524;28;45477;-85
2021/11/24 05:20:30;;;;;;;;;57.25;44.25;;;;;6.52;66.71;102243.00;5061784;28;46059;-82
2021/11/24 05:22:59;;;;;;;;;55.25;38.50;;;;;6.55;67.13;102236.03;5047959;28;45576;-84
2021/11/24 05:25:26;;;;;;;;;40.75;36.25;;;;;6.55;66.81;102238.66;5056683;28;45473;-84
2021/11/24 05:27:52;;;;;;;;;50.75;37.50;;;;;6.52;66.86;102245.59;5060737;28;46652;-84
2021/11/24 05:30:17;;;;;;;;;37.50;34.00;;;;;6.55;66.66;102243.88;5056579;28;45474;-82
2021/11/24 05:32:42;;;;;;;;;53.00;40.25;;;;;6.57;66.82;102236.94;5053316;28;45612;-80
2021/11/24 05:35:08;;;;;;;;;52.50;39.50;;;;;6.56;66.82;102236.06;5060689;28;45453;-80
2021/11/24 05:37:34;;;;;;;;;58.25;45.00;;;;;6.61;66.75;102243.94;5056544;28;46290;-82
2021/11/24 05:39:59;;;;;;;;;38.00;32.25;;;;;6.62;66.66;102237.84;5052012;28;45361;-86
2021/11/24 05:42:27;;;;;;;;;48.75;37.25;;;;;6.63;67.10;102231.75;5044390;28;45437;-88
2021/11/24 05:45:02;;;;;;;;;49.50;36.50;;;;;6.62;66.67;102227.38;5053879;28;45697;-90
2021/11/24 05:50:11;;;;;;;;;67.75;48.50;;;;;6.66;66.87;102220.47;5041092;28;45956;-83
2021/11/24 05:52:36;;;;;;;;;66.25;50.00;;;;;6.67;66.66;102214.38;5057607;28;45335;-84
2021/11/24 05:55:03;;;;;;;;;65.25;50.00;;;;;6.69;66.75;102210.88;5041749;28;45236;-93
2021/11/24 05:57:28;;;;;;;;;35.75;31.00;;;;;6.70;66.54;102217.00;5051420;28;45495;-91
2021/11/24 05:59:53;;;;;;;;;37.75;33.25;;;;;6.70;66.77;102215.25;5060888;28;45321;-89
2021/11/24 06:02:19;;;;;;;;;27.25;24.25;;;;;6.70;66.97;102217.88;5061203;28;45427;-89
2021/11/24 06:04:44;;;;;;;;;43.00;35.25;;;;;6.68;66.65;102209.16;5047360;28;45238;-88
2021/11/24 06:07:09;;;;;;;;;44.00;32.25;;;;;6.69;66.34;102210.03;5060951;28;46222;-88
2021/11/24 06:09:35;;;;;;;;;43.75;30.00;;;;;6.74;66.58;102210.94;5054743;28;45241;-94
2021/11/24 06:12:00;;;;;;;;;32.75;31.00;;;;;6.74;66.64;102209.19;5060742;28;45288;-94
2021/11/24 06:14:25;;;;;;;;;38.50;30.25;;;;;6.74;66.31;102201.34;5048608;28;46015;-94
2021/11/24 06:16:51;;;;;;;;;38.00;28.00;;;;;6.75;66.30;102208.34;5063930;28;47219;-92
2021/11/24 06:19:16;;;;;;;;;30.75;26.75;;;;;6.73;66.38;102197.00;5051980;28;45385;-89
2021/11/24 06:21:42;;;;;;;;;32.50;27.25;;;;;6.74;66.46;102201.34;5059668;28;45405;-89
2021/11/24 06:24:07;;;;;;;;;40.00;35.75;;;;;6.72;66.56;102200.47;5076197;28;45409;-84
2021/11/24 06:26:32;;;;;;;;;43.00;34.75;;;;;6.71;66.07;102200.47;5048405;28;46245;-84
2021/11/24 06:28:58;;;;;;;;;38.75;33.50;;;;;6.71;66.37;102200.47;5045938;28;45541;-84
2021/11/24 06:31:26;;;;;;;;;43.75;36.50;;;;;6.70;66.63;102196.09;5057971;28;45446;-84
2021/11/24 06:33:51;;;;;;;;;37.75;31.50;;;;;6.67;66.38;102190.88;5054114;28;45298;-84
2021/11/24 06:36:18;;;;;;;;;40.50;32.25;;;;;6.67;65.92;102196.09;5062075;28;45373;-84
2021/11/24 06:38:44;;;;;;;;;40.25;32.75;;;;;6.62;66.21;102191.69;5064482;28;45238;-84
2021/11/24 06:41:09;;;;;;;;;34.50;30.25;;;;;6.63;66.07;102189.94;5052840;28;45140;-84
2021/11/24 06:43:35;;;;;;;;;37.50;28.25;;;;;6.63;66.45;102197.78;5057321;28;47211;-84
2021/11/24 06:46:00;;;;;;;;;29.00;21.25;;;;;6.60;66.56;102182.09;5061495;28;45251;-84
2021/11/24 06:48:25;;;;;;;;;37.00;31.75;;;;;6.60;66.62;102182.97;5041010;28;45256;-83
2021/11/24 06:50:51;;;;;;;;;36.25;28.25;;;;;6.59;66.57;102175.97;5046896;28;45692;-84
2021/11/24 06:53:16;;;;;;;;;39.25;31.50;;;;;6.57;65.96;102169.88;5054794;28;45520;-84
2021/11/24 06:55:42;;;;;;;;;38.50;31.00;;;;;6.57;66.78;102174.25;5057678;28;46443;-84
2021/11/24 06:58:07;;;;;;;;;35.50;30.00;;;;;6.58;66.26;102179.47;5058890;28;45418;-83
2021/11/24 07:00:32;;;;;;;;;32.50;29.25;;;;;6.55;66.09;102169.00;5055097;28;45753;-83
2021/11/24 07:02:58;;;;;;;;;35.75;29.50;;;;;6.51;66.53;102170.72;5057185;28;47323;-83
2021/11/24 07:05:23;;;;;;;;;29.25;27.25;;;;;6.46;66.42;102175.03;5054946;28;45779;-84
2021/11/24 07:07:49;;;;;;;;;37.50;33.50;;;;;6.43;66.37;102179.34;5058683;28;45796;-83
2021/11/24 07:10:14;;;;;;;;;35.75;32.50;;;;;6.40;66.25;102177.59;5053985;28;45738;-84
2021/11/24 07:12:39;;;;;;;;;36.25;28.75;;;;;6.40;66.22;102172.34;5057184;28;47073;-83
2021/11/24 07:15:06;;;;;;;;;33.00;27.25;;;;;6.39;66.40;102181.06;5052652;28;46237;-84
2021/11/24 07:17:31;;;;;;;;;35.25;31.75;;;;;6.39;66.07;102175.84;5054771;28;45929;-84
2021/11/24 07:19:57;;;;;;;;;44.00;34.75;;;;;6.39;65.85;102181.06;5057710;28;45339;-84
2021/11/24 07:22:22;;;;;;;;;36.00;30.75;;;;;6.37;65.74;102177.59;5050135;28;45378;-84
2021/11/24 07:24:48;;;;;;;;;39.75;31.25;;;;;6.39;65.89;102181.97;5049274;28;45358;-84
2021/11/24 07:27:13;;;;;;;;;32.00;31.25;;;;;6.36;65.87;102173.22;5066987;28;45801;-83
2021/11/24 07:29:39;;;;;;;;;28.75;25.25;;;;;6.33;65.97;102168.84;5054781;28;45165;-82
2021/11/24 07:32:05;;;;;;;;;31.75;28.25;;;;;6.33;65.78;102166.22;5048111;28;45338;-82
2021/11/24 07:34:30;;;;;;;;;31.50;27.25;;;;;6.34;65.68;102167.09;5057608;28;45269;-82
2021/11/24 07:36:56;;;;;;;;;27.75;24.75;;;;;6.30;66.08;102161.84;5047483;28;45201;-82
2021/11/24 07:39:22;;;;;;;;;36.50;26.50;;;;;6.30;66.12;102156.63;5050763;28;45259;-83
2021/11/24 07:41:47;;;;;;;;;34.00;25.00;;;;;6.26;65.82;102147.03;5055366;28;45232;-86
2021/11/24 07:44:12;;;;;;;;;28.50;26.75;;;;;6.27;65.84;102156.59;5055336;28;45491;-85
2021/11/24 07:46:38;;;;;;;;;28.50;25.00;;;;;6.25;65.96;102152.22;5045883;28;45342;-83
2021/11/24 07:49:03;;;;;;;;;26.50;24.00;;;;;6.21;66.50;102158.28;5050940;28;45296;-85
2021/11/24 07:51:28;;;;;;;;;31.75;25.00;;;;;6.21;66.71;102158.28;5059884;28;45385;-85
2021/11/24 07:53:54;;;;;;;;;32.75;28.25;;;;;6.22;66.31;102160.94;5054675;28;48004;-85
2021/11/24 07:56:20;;;;;;;;;35.25;27.25;;;;;6.23;66.46;102164.38;5060504;28;45438;-88
2021/11/24 07:58:46;;;;;;;;;36.50;30.75;;;;;6.22;66.20;102168.75;5075359;28;45410;-87
2021/11/24 08:01:13;;;;;;;;;32.00;23.00;;;;;6.19;66.23;102172.22;5053155;28;45277;-86
2021/11/24 08:03:39;;;;;;;;;32.00;24.75;;;;;6.21;66.24;102176.56;5059259;28;46170;-89
2021/11/24 08:06:05;;;;;;;;;33.50;25.50;;;;;6.15;66.03;102177.41;5053060;28;45736;-89
2021/11/24 08:08:31;;;;;;;;;33.25;29.50;;;;;6.13;66.86;102161.69;5062783;28;45221;-92
2021/11/24 08:10:56;;;;;;;;;32.25;29.50;;;;;6.17;66.49;102178.28;5064214;28;46954;-88
2021/11/24 08:13:22;;;;;;;;;44.00;31.75;;;;;6.19;66.39;102180.06;5054610;28;46127;-85
2021/11/24 08:15:48;;;;;;;;;40.75;31.50;;;;;6.21;66.44;102166.13;5051045;28;45374;-85
2021/11/24 08:18:14;;;;;;;;;41.75;30.25;;;;;6.24;66.55;102160.94;5051304;28;45286;-85
2021/11/24 08:20:40;;;;;;;;;35.25;31.00;;;;;6.26;66.75;102160.09;5061246;28;45411;-86
2021/11/24 08:23:06;;;;;;;;;33.25;29.00;;;;;6.30;66.49;102169.69;5059352;28;45388;-85
2021/11/24 08:25:31;;;;;;;;;32.25;31.75;;;;;6.30;66.26;102167.06;5059398;28;45342;-85
2021/11/24 08:27:57;;;;;;;;;39.25;31.00;;;;;6.32;66.71;102174.06;5058793;28;45414;-86
2021/11/24 08:30:23;;;;;;;;;34.50;29.50;;;;;6.33;66.62;102165.34;5053562;28;47332;-86
2021/11/24 08:32:52;;;;;;;;;32.50;28.25;;;;;6.34;66.31;102167.09;5054663;28;47110;-86
2021/11/24 08:35:19;;;;;;;;;35.00;28.00;;;;;6.39;66.24;102157.56;5048356;28;45937;-90
2021/11/24 08:37:45;;;;;;;;;31.25;26.00;;;;;6.35;66.57;102151.44;5062589;28;45348;-87
2021/11/24 08:40:11;;;;;;;;;36.00;29.50;;;;;6.38;66.38;102155.81;5062521;28;45480;-84
2021/11/24 08:42:38;;;;;;;;;35.00;30.50;;;;;6.41;66.40;102153.22;5056298;28;48087;-85
2021/11/24 08:45:06;;;;;;;;;28.50;22.00;;;;;6.40;66.23;102148.84;5053600;28;46229;-84
2021/11/24 08:47:32;;;;;;;;;33.75;27.50;;;;;6.38;66.72;102145.34;5046985;28;45235;-85
2021/11/24 08:49:57;;;;;;;;;31.00;26.75;;;;;6.37;66.58;102146.25;5064520;28;45985;-85
2021/11/24 08:52:22;;;;;;;;;36.25;27.50;;;;;6.38;66.12;102140.13;5055084;28;45387;-85
2021/11/24 08:54:48;;;;;;;;;34.50;27.00;;;;;6.39;66.75;102144.50;5049403;28;45489;-85
2021/11/24 08:57:14;;;;;;;;;32.25;27.25;;;;;6.38;66.39;102138.41;5062465;28;45314;-85
2021/11/24 08:59:39;;;;;;;;;33.00;27.00;;;;;6.43;65.88;102129.72;5061652;28;45491;-86
2021/11/24 09:02:06;;;;;;;;;41.50;31.00;;;;;6.45;65.98;102126.25;5050725;28;45547;-86
2021/11/24 09:04:32;;;;;;;;;37.00;28.75;;;;;6.43;66.31;102120.16;5049373;28;45351;-84
2021/11/24 09:06:58;;;;;;;;;34.50;29.50;;;;;6.41;66.42;102121.88;5046860;28;45211;-86
2021/11/24 09:09:23;;;;;;;;;33.50;28.75;;;;;6.42;66.18;102134.06;5042603;28;47028;-88
2021/11/24 09:11:48;;;;;;;;;31.75;24.50;;;;;6.41;66.31;102119.28;5038689;28;45808;-87
2021/11/24 09:14:14;;;;;;;;;34.25;29.25;;;;;6.41;66.16;102112.31;5055514;28;45660;-87
2021/11/24 09:16:39;;;;;;;;;34.00;28.25;;;;;6.41;66.12;102106.22;5071028;28;45272;-87
2021/11/24 09:19:05;;;;;;;;;32.00;28.25;;;;;6.44;66.59;102113.19;5058378;28;45484;-87
2021/11/24 09:21:30;;;;;;;;;30.00;26.00;;;;;6.48;66.56;102118.44;5045855;28;45384;-87
2021/11/24 09:24:04;;;;;;;;;27.00;23.75;;;;;6.53;66.43;102113.25;5053047;28;45326;-86
2021/11/24 09:26:43;;;;;;;;;34.75;28.25;;;;;6.58;66.24;102114.16;5056308;28;45552;-86
2021/11/24 09:29:10;;;;;;;;;37.00;28.25;;;;;6.66;66.36;102111.59;5057834;28;45346;-87
2021/11/24 09:31:37;;;;;;;;;37.00;31.50;;;;;6.66;65.92;102111.59;5062641;28;47520;-86
2021/11/24 09:34:03;;;;;;;;;44.00;33.00;;;;;6.68;66.02;102111.59;5058856;28;45274;-87
2021/11/24 09:36:28;;;;;;;;;35.50;29.00;;;;;6.69;66.39;102106.38;5075722;28;45350;-87
2021/11/24 09:38:55;;;;;;;;;31.50;27.50;;;;;6.74;65.90;102109.88;5054943;28;45866;-87
2021/11/24 09:41:23;;;;;;;;;25.50;19.50;;;;;6.74;66.15;102107.25;5049676;28;46157;-86
2021/11/24 09:43:50;;;;;;;;;33.50;27.75;;;;;6.78;65.77;102102.06;5057788;28;45900;-87
2021/11/24 09:46:17;;;;;;;;;31.00;26.75;;;;;6.80;65.77;102098.59;5052977;28;45455;-87
2021/11/24 09:48:44;;;;;;;;;26.25;23.25;;;;;6.82;65.69;102096.84;5044000;28;46127;-87
2021/11/24 09:51:12;;;;;;;;;39.00;31.00;;;;;6.83;65.71;102102.97;5060813;28;46336;-86
2021/11/24 09:53:39;;;;;;;;;30.25;26.50;;;;;6.84;65.77;102096.88;5047585;28;45609;-86
2021/11/24 09:56:05;;;;;;;;;34.00;26.75;;;;;6.86;65.89;102093.38;5047917;28;45359;-86
2021/11/24 09:58:32;;;;;;;;;32.25;25.00;;;;;6.86;65.57;102090.75;5055984;28;45827;-87
2021/11/24 10:00:58;;;;;;;;;31.00;26.50;;;;;6.91;65.90;102097.78;5075436;28;47095;-86
2021/11/24 10:03:25;;;;;;;;;35.00;30.00;;;;;6.92;66.16;102087.31;5060878;28;45270;-86
2021/11/24 10:05:51;;;;;;;;;35.50;31.50;;;;;6.98;65.65;102086.47;5048686;28;45628;-86
2021/11/24 10:08:16;;;;;;;;;31.25;27.50;;;;;7.06;65.92;102089.13;5059015;28;45238;-86
2021/11/24 10:10:42;;;;;;;;;31.50;29.00;;;;;7.10;65.44;102085.66;5048819;28;46277;-86
2021/11/24 10:13:07;;;;;;;;;33.75;28.50;;;;;7.15;65.54;102090.88;5046141;28;45213;-87
2021/11/24 10:15:48;;;;;;;;;34.00;31.00;;;;;7.17;65.14;102092.63;5047045;28;45891;-87
2021/11/24 10:18:35;;;;;;;;;37.75;33.00;;;;;7.15;65.35;102083.94;5058943;28;45508;-87
2021/11/24 10:21:08;;;;;;;;;38.75;33.00;;;;;7.23;65.56;102089.19;5059523;28;46442;-87
2021/11/24 10:23:48;;;;;;;;;33.25;28.75;;;;;7.26;65.19;102068.25;5055903;28;45774;-86
2021/11/24 10:26:17;;;;;;;;;40.75;29.00;;;;;7.32;65.03;102068.28;5044036;28;45394;-84
2021/11/24 10:28:53;;;;;;;;;38.75;29.25;;;;;7.32;64.85;102060.44;5051241;28;45615;-85
2021/11/24 10:31:40;;;;;;;;;31.50;26.75;;;;;7.39;65.29;102066.53;5048104;28;45503;-85
2021/11/24 10:34:18;;;;;;;;;30.75;28.25;;;;;7.40;64.79;102057.84;5068919;28;45938;-84
2021/11/24 10:36:56;;;;;;;;;33.25;29.50;;;;;7.41;64.61;102059.56;5059409;28;45425;-84
2021/11/24 10:39:23;;;;;;;;;35.75;27.75;;;;;7.44;64.78;102058.69;5059996;28;45424;-84
2021/11/24 10:41:49;;;;;;;;;34.00;27.75;;;;;7.50;64.66;102042.13;5049638;28;45655;-85
2021/11/24 10:44:28;;;;;;;;;39.50;30.25;;;;;7.50;64.85;102042.13;5063199;28;45380;-85
2021/11/24 10:46:56;;;;;;;;;29.75;28.00;;;;;7.56;64.47;102047.38;5052865;28;45759;-85
2021/11/24 10:49:52;;;;;;;;;31.25;29.00;;;;;7.56;64.33;102039.50;5055273;28;46393;-85
2021/11/24 10:52:20;;;;;;;;;37.50;29.00;;;;;7.60;64.67;102036.06;5043286;28;45292;-84
2021/11/24 10:55:19;;;;;;;;;32.75;28.00;;;;;7.61;64.29;102024.69;5055770;28;45684;-84
2021/11/24 10:57:59;;;;;;;;;27.25;26.25;;;;;7.65;63.97;102025.59;5042520;28;45488;-84
2021/11/24 11:00:34;;;;;;;;;27.75;23.50;;;;;7.65;63.36;102017.72;5040900;28;45324;-84
2021/11/24 11:02:59;;;;;;;;;32.00;25.25;;;;;7.62;64.15;102009.88;5052515;28;45404;-85
2021/11/24 11:05:25;;;;;;;;;33.00;28.50;;;;;7.69;64.51;102013.34;5057433;28;45425;-85
2021/11/24 11:07:51;;;;;;;;;32.25;24.75;;;;;7.70;63.76;102005.53;5051707;28;45266;-85
2021/11/24 11:10:16;;;;;;;;;34.75;28.50;;;;;7.72;63.40;101998.53;5056345;28;46997;-84
2021/11/24 11:12:46;;;;;;;;;30.25;25.50;;;;;7.73;64.19;101986.31;5057814;28;45556;-84
2021/11/24 11:15:12;;;;;;;;;31.00;25.25;;;;;7.80;63.48;101997.66;5053084;28;45383;-84
2021/11/24 11:17:49;;;;;;;;;29.75;22.50;;;;;7.80;63.20;101988.06;5057805;28;45366;-86